Time;durP1;ratioP1;P1;durP2;ratioP2;P2;SDS_P1;SDS_P2;PMS_P1;PMS_P2;Temp;Humidity;BMP_temperature;BMP_pressure;BME280_temperature;BME280_humidity;BME280_pressure;Samples;Min_cycle;Max_cycle;Signal;HPM_P1;HPM_P2
2022/01/31 00:00:26;;;;;;;13.02;4.22;;;2.00;10.60;;;;;;7363717;19;20094;-64
2022/01/31 00:02:56;;;;;;;19.17;4.93;;;2.00;10.60;;;;;;7365494;19;20017;-65
2022/01/31 00:05:26;;;;;;;18.83;5.13;;;2.00;10.50;;;;;;7361516;19;20010;-65
2022/01/31 00:07:56;;;;;;;11.48;4.63;;;2.00;10.40;;;;;;7363173;19;20014;-64
2022/01/31 00:10:31;;;;;;;17.67;4.38;;;2.00;11.20;;;;;;7382664;19;20081;-65
2022/01/31 00:13:06;;;;;;;22.77;5.25;;;2.00;10.60;;;;;;7363454;19;20003;-63
2022/01/31 00:15:41;;;;;;;14.35;4.78;;;2.00;10.30;;;;;;7362376;19;21370;-64
2022/01/31 00:18:11;;;;;;;14.13;4.80;;;2.00;10.00;;;;;;7362023;19;20006;-64
2022/01/31 00:20:42;;;;;;;11.90;4.45;;;2.00;10.10;;;;;;7359336;19;20081;-64
2022/01/31 00:23:12;;;;;;;16.15;4.60;;;2.00;10.10;;;;;;7361963;19;20032;-64
2022/01/31 00:25:45;;;;;;;16.17;4.03;;;2.00;10.20;;;;;;7380891;19;20094;-64
2022/01/31 00:28:16;;;;;;;12.75;4.32;;;2.00;10.20;;;;;;7355260;19;20027;-64
2022/01/31 00:30:46;;;;;;;15.35;4.45;;;2.00;10.60;;;;;;7357599;19;20010;-62
2022/01/31 00:33:21;;;;;;;11.20;4.70;;;2.00;10.60;;;;;;7362334;19;20003;-63
2022/01/31 00:35:51;;;;;;;14.27;4.82;;;2.00;10.20;;;;;;7355109;19;20010;-64
2022/01/31 00:38:23;;;;;;;16.63;4.70;;;2.10;10.00;;;;;;7354554;19;20010;-65
2022/01/31 00:40:56;;;;;;;16.98;5.28;;;2.10;9.70;;;;;;7356688;19;20037;-65
2022/01/31 00:43:26;;;;;;;14.35;4.80;;;2.20;9.80;;;;;;7378839;19;20287;-63
2022/01/31 00:46:03;;;;;;;15.25;5.07;;;2.10;10.20;;;;;;7356836;19;20011;-64
2022/01/31 00:48:40;;;;;;;9.65;5.00;;;2.10;9.60;;;;;;7353624;19;20018;-64
2022/01/31 00:51:10;;;;;;;17.58;5.93;;;2.10;9.60;;;;;;7359450;19;21766;-63
2022/01/31 00:53:41;;;;;;;18.17;4.90;;;2.20;10.00;;;;;;7358664;19;20053;-63
2022/01/31 00:56:13;;;;;;;18.95;5.60;;;2.20;9.60;;;;;;7362354;19;20010;-63
2022/01/31 00:58:43;;;;;;;19.45;5.40;;;2.20;9.50;;;;;;7372541;19;20045;-64
2022/01/31 01:01:13;;;;;;;13.23;5.05;;;2.20;9.70;;;;;;7357349;19;20090;-64
2022/01/31 01:03:43;;;;;;;18.35;5.80;;;2.20;9.80;;;;;;7361054;19;20007;-62
2022/01/31 01:06:13;;;;;;;11.32;4.72;;;2.20;9.90;;;;;;7358090;19;20003;-63
2022/01/31 01:08:43;;;;;;;12.15;4.57;;;2.20;9.30;;;;;;7353730;19;20074;-63
2022/01/31 01:11:16;;;;;;;11.68;4.95;;;2.30;9.50;;;;;;7359372;19;20010;-63
2022/01/31 01:13:46;;;;;;;12.93;4.82;;;2.30;9.70;;;;;;7365498;19;20466;-63
2022/01/31 01:16:15;;;;;;;14.45;4.78;;;2.20;9.60;;;;;;7379431;19;20021;-64
2022/01/31 01:18:45;;;;;;;10.57;4.63;;;2.30;9.60;;;;;;7353048;19;20846;-64
2022/01/31 01:21:16;;;;;;;15.88;4.20;;;2.30;9.80;;;;;;7356840;19;20011;-63
2022/01/31 01:23:46;;;;;;;17.38;4.13;;;2.30;9.50;;;;;;7360127;19;20003;-64
2022/01/31 01:26:19;;;;;;;15.00;4.38;;;2.40;9.20;;;;;;7362029;19;20516;-63
2022/01/31 01:28:49;;;;;;;16.65;4.53;;;2.30;9.30;;;;;;7349310;19;20015;-63
2022/01/31 01:31:19;;;;;;;13.18;4.50;;;2.30;9.60;;;;;;7382052;19;20011;-63
2022/01/31 01:33:52;;;;;;;13.52;4.88;;;2.30;9.90;;;;;;7367794;19;20070;-64
2022/01/31 01:36:23;;;;;;;13.77;5.07;;;2.30;9.90;;;;;;7363904;19;20014;-64
2022/01/31 01:38:53;;;;;;;17.15;4.78;;;2.40;9.80;;;;;;7360641;19;20486;-63
2022/01/31 01:41:26;;;;;;;11.82;4.88;;;2.40;9.40;;;;;;7367895;19;20034;-64
2022/01/31 01:43:56;;;;;;;10.80;4.95;;;2.30;9.70;;;;;;7363911;19;20018;-64
2022/01/31 01:46:27;;;;;;;11.48;4.32;;;2.20;10.00;;;;;;7383724;19;20485;-64
2022/01/31 01:48:57;;;;;;;18.70;4.78;;;2.20;10.30;;;;;;7360301;19;20109;-64
2022/01/31 01:51:27;;;;;;;14.18;4.30;;;2.20;10.60;;;;;;7362638;19;20011;-64
2022/01/31 01:53:58;;;;;;;9.80;4.53;;;2.20;10.80;;;;;;7367048;19;20085;-63
2022/01/31 01:56:31;;;;;;;12.73;5.13;;;2.30;11.40;;;;;;7364308;19;20015;-64
2022/01/31 01:59:05;;;;;;;11.95;4.70;;;2.20;10.90;;;;;;7358433;19;20053;-64
2022/01/31 02:01:35;;;;;;;16.23;4.38;;;2.30;11.30;;;;;;7387964;19;20015;-63
2022/01/31 02:04:07;;;;;;;14.60;5.45;;;2.20;11.30;;;;;;7366488;19;20007;-63
2022/01/31 02:06:37;;;;;;;11.52;4.03;;;2.20;11.90;;;;;;7360335;19;20906;-63
2022/01/31 02:09:07;;;;;;;9.15;4.43;;;2.30;12.00;;;;;;7360769;19;20478;-63
2022/01/31 02:11:39;;;;;;;11.00;4.45;;;2.30;11.50;;;;;;7365802;19;20101;-63
2022/01/31 02:14:09;;;;;;;16.33;4.68;;;2.30;11.70;;;;;;7365909;19;20526;-63
2022/01/31 02:16:39;;;;;;;14.88;5.00;;;2.30;10.90;;;;;;7383247;19;20078;-64
2022/01/31 02:19:14;;;;;;;15.25;4.07;;;2.40;10.90;;;;;;7359601;19;20402;-63
2022/01/31 02:21:51;;;;;;;22.48;5.28;;;2.40;10.90;;;;;;7362421;19;20027;-63
2022/01/31 02:24:21;;;;;;;18.02;4.78;;;2.30;10.90;;;;;;7365702;19;20035;-63
2022/01/31 02:26:51;;;;;;;13.35;4.13;;;2.40;10.60;;;;;;7363508;19;20537;-64
2022/01/31 02:29:21;;;;;;;14.40;4.00;;;2.50;10.30;;;;;;7359178;19;20036;-63
2022/01/31 02:31:52;;;;;;;12.38;4.45;;;2.50;9.90;;;;;;7364290;19;20056;-64
2022/01/31 02:34:22;;;;;;;10.90;4.30;;;2.50;10.30;;;;;;7387157;19;20015;-63
2022/01/31 02:36:54;;;;;;;14.23;4.97;;;2.50;10.50;;;;;;7358177;19;20010;-63
2022/01/31 02:39:24;;;;;;;17.40;4.65;;;2.50;9.80;;;;;;7361519;19;20067;-63
2022/01/31 02:41:54;;;;;;;17.77;4.25;;;2.60;9.90;;;;;;7367065;19;20090;-63
2022/01/31 02:44:24;;;;;;;12.98;4.70;;;2.60;9.40;;;;;;7363689;19;20492;-63
2022/01/31 02:46:55;;;;;;;18.85;5.05;;;2.60;9.60;;;;;;7358321;19;20022;-63
2022/01/31 02:49:33;;;;;;;14.40;4.72;;;2.50;9.60;;;;;;7382910;19;20020;-64
2022/01/31 02:52:06;;;;;;;10.07;3.58;;;2.50;10.20;;;;;;7360827;19;20526;-63
2022/01/31 02:54:37;;;;;;;11.13;4.25;;;2.60;10.50;;;;;;7363947;19;20011;-63
2022/01/31 02:57:07;;;;;;;11.75;4.18;;;2.50;10.90;;;;;;7359361;19;20010;-63
2022/01/31 02:59:37;;;;;;;11.45;3.80;;;2.60;10.60;;;;;;7358451;19;20018;-63
2022/01/31 03:02:08;;;;;;;9.32;4.30;;;2.50;11.00;;;;;;7364435;19;20033;-64
2022/01/31 03:04:38;;;;;;;12.95;4.28;;;2.60;10.60;;;;;;7387381;19;20010;-63
2022/01/31 03:07:11;;;;;;;15.40;4.72;;;2.60;10.40;;;;;;7355571;19;20010;-63
2022/01/31 03:09:41;;;;;;;10.48;4.72;;;2.60;10.60;;;;;;7358674;19;20110;-63
2022/01/31 03:12:13;;;;;;;13.48;4.90;;;2.60;10.30;;;;;;7363700;19;20354;-64
2022/01/31 03:14:44;;;;;;;12.07;4.28;;;2.60;9.90;;;;;;7364663;19;20035;-64
2022/01/31 03:17:14;;;;;;;10.75;4.13;;;2.60;10.30;;;;;;7359443;19;20010;-63
2022/01/31 03:19:48;;;;;;;14.40;4.72;;;2.60;10.20;;;;;;7379435;19;20409;-64
2022/01/31 03:22:23;;;;;;;12.15;4.60;;;2.60;10.20;;;;;;7358132;19;20018;-63
2022/01/31 03:24:53;;;;;;;10.50;4.05;;;2.70;9.90;;;;;;7362208;19;20015;-64
2022/01/31 03:27:23;;;;;;;10.18;4.53;;;2.70;9.50;;;;;;7361437;19;20011;-64
2022/01/31 03:29:53;;;;;;;13.80;4.63;;;2.60;9.40;;;;;;7358607;19;20077;-64
2022/01/31 03:32:23;;;;;;;7.15;3.70;;;2.70;9.40;;;;;;7361445;19;20418;-63
2022/01/31 03:34:53;;;;;;;10.02;3.95;;;2.70;8.90;;;;;;7365473;19;20018;-63
2022/01/31 03:37:25;;;;;;;16.17;4.35;;;2.80;8.80;;;;;;7379655;19;20082;-64
2022/01/31 03:39:55;;;;;;;13.80;4.60;;;2.80;7.80;;;;;;7357757;19;20010;-64
2022/01/31 03:42:25;;;;;;;10.82;4.75;;;2.80;7.60;;;;;;7365202;19;20477;-63
2022/01/31 03:44:55;;;;;;;8.77;3.85;;;2.90;7.60;;;;;;7363387;19;20058;-63
2022/01/31 03:47:25;;;;;;;10.32;3.70;;;2.90;7.60;;;;;;7352391;19;20087;-63
2022/01/31 03:49:55;;;;;;;11.68;4.10;;;2.90;7.40;;;;;;7358679;19;20088;-63
2022/01/31 03:52:28;;;;;;;13.18;4.40;;;3.00;7.20;;;;;;7383848;19;20019;-63
2022/01/31 03:54:58;;;;;;;13.05;4.20;;;3.00;6.40;;;;;;7365021;19;20018;-63
2022/01/31 03:57:28;;;;;;;9.48;3.50;;;3.00;6.90;;;;;;7357961;19;20003;-63
2022/01/31 04:00:00;;;;;;;10.50;3.47;;;3.00;6.50;;;;;;7358981;19;20027;-63
2022/01/31 04:02:30;;;;;;;11.85;4.10;;;3.10;6.20;;;;;;7362997;19;20082;-63
2022/01/31 04:05:00;;;;;;;12.63;3.53;;;3.10;5.70;;;;;;7363714;19;20022;-64
2022/01/31 04:07:32;;;;;;;11.48;3.28;;;3.10;5.40;;;;;;7378383;19;20447;-63
2022/01/31 04:10:02;;;;;;;8.55;3.45;;;3.20;4.50;;;;;;7358929;19;20134;-63
2022/01/31 04:12:33;;;;;;;13.50;4.35;;;3.20;4.40;;;;;;7363847;19;20027;-63
2022/01/31 04:15:03;;;;;;;9.40;3.40;;;3.30;4.20;;;;;;7362044;19;20040;-62
2022/01/31 04:17:33;;;;;;;14.13;3.95;;;3.30;4.30;;;;;;7357344;19;20425;-63
2022/01/31 04:20:03;;;;;;;8.20;3.10;;;3.30;3.60;;;;;;7360874;19;20035;-63
2022/01/31 04:22:39;;;;;;;7.80;3.45;;;3.30;3.60;;;;;;7383424;19;20014;-63
2022/01/31 04:25:27;;;;;;;14.07;4.13;;;3.30;3.60;;;;;;7364328;19;20003;-64
2022/01/31 04:28:02;;;;;;;10.02;3.25;;;3.30;4.00;;;;;;7362304;19;20019;-63
2022/01/31 04:30:35;;;;;;;11.15;3.20;;;3.20;4.10;;;;;;7361273;19;20007;-64
2022/01/31 04:33:05;;;;;;;8.27;3.10;;;3.20;4.30;;;;;;7362462;19;20031;-64
2022/01/31 04:35:35;;;;;;;10.88;3.85;;;3.20;4.60;;;;;;7363122;19;20010;-63
2022/01/31 04:38:08;;;;;;;8.65;3.45;;;3.20;4.90;;;;;;7360521;19;20008;-63
2022/01/31 04:40:38;;;;;;;13.20;4.35;;;3.20;5.00;;;;;;7382718;19;20039;-63
2022/01/31 04:43:08;;;;;;;12.10;3.60;;;3.30;4.80;;;;;;7364905;19;20014;-63
2022/01/31 04:45:38;;;;;;;15.85;3.58;;;3.30;4.30;;;;;;7361392;19;20085;-64
2022/01/31 04:48:08;;;;;;;13.00;3.50;;;3.30;4.30;;;;;;7360253;19;20486;-63
2022/01/31 04:50:38;;;;;;;13.85;3.17;;;3.30;4.50;;;;;;7363296;19;20015;-64
2022/01/31 04:53:11;;;;;;;13.27;3.70;;;3.30;4.60;;;;;;7362879;19;20011;-63
2022/01/31 04:55:41;;;;;;;11.60;3.75;;;3.30;4.40;;;;;;7381588;19;20018;-63
2022/01/31 04:58:11;;;;;;;6.72;3.03;;;3.40;4.30;;;;;;7360831;19;20014;-63
2022/01/31 05:00:41;;;;;;;9.57;3.22;;;3.40;4.20;;;;;;7362193;19;20015;-63
2022/01/31 05:03:14;;;;;;;8.35;3.22;;;3.60;3.60;;;;;;7361640;19;20003;-64
2022/01/31 05:05:45;;;;;;;8.43;3.70;;;3.60;3.60;;;;;;7362274;19;20003;-64
2022/01/31 05:08:23;;;;;;;14.00;3.38;;;3.70;2.90;;;;;;7364050;19;20023;-64
2022/01/31 05:10:53;;;;;;;12.38;3.67;;;3.70;2.70;;;;;;7367394;19;20479;-64
2022/01/31 05:13:24;;;;;;;16.77;3.03;;;3.70;2.50;;;;;;7392242;19;20552;-64
2022/01/31 05:15:55;;;;;;;7.10;2.80;;;3.70;2.50;;;;;;7367975;19;20077;-63
2022/01/31 05:18:25;;;;;;;11.77;3.10;;;3.70;2.30;;;;;;7363295;19;20003;-63
2022/01/31 05:20:55;;;;;;;11.68;3.38;;;3.80;2.60;;;;;;7369986;19;20454;-63
2022/01/31 05:23:29;;;;;;;8.80;3.63;;;3.80;2.50;;;;;;7370206;19;20065;-63
2022/01/31 05:25:59;;;;;;;12.02;3.67;;;3.80;2.40;;;;;;7365765;19;20454;-63
2022/01/31 05:28:29;;;;;;;10.82;3.08;;;4.00;2.30;;;;;;7386682;19;20044;-64
2022/01/31 05:30:59;;;;;;;9.05;2.75;;;4.40;1.20;;;;;;7370597;19;20041;-64
2022/01/31 05:33:29;;;;;;;13.13;3.53;;;4.70;1.00;;;;;;7365993;19;20078;-63
2022/01/31 05:35:59;;;;;;;9.38;2.90;;;4.80;1.00;;;;;;7368533;19;20538;-64
2022/01/31 05:38:34;;;;;;;8.98;2.90;;;4.90;1.00;;;;;;7363769;19;20085;-64
2022/01/31 05:41:07;;;;;;;9.75;3.20;;;4.90;1.00;;;;;;7368508;19;20017;-64
2022/01/31 05:43:37;;;;;;;9.20;3.58;;;4.90;1.00;;;;;;7389911;19;20085;-63
2022/01/31 05:46:07;;;;;;;16.35;3.88;;;4.90;1.00;;;;;;7367988;19;20015;-63
2022/01/31 05:48:37;;;;;;;11.13;3.00;;;5.00;1.00;;;;;;7360282;19;20010;-64
2022/01/31 05:51:16;;;;;;;11.63;3.22;;;5.00;1.00;;;;;;7369372;19;20010;-64
2022/01/31 05:53:50;;;;;;;13.95;3.33;;;5.00;1.00;;;;;;7368773;19;20066;-63
2022/01/31 05:56:21;;;;;;;9.85;3.67;;;5.10;1.00;;;;;;7365145;19;20014;-63
2022/01/31 05:58:51;;;;;;;8.10;3.13;;;5.10;1.00;;;;;;7362302;19;20511;-63
2022/01/31 06:01:21;;;;;;;9.10;2.90;;;5.10;1.00;;;;;;7390587;19;20015;-63
2022/01/31 06:03:51;;;;;;;10.27;3.33;;;5.10;1.00;;;;;;7365428;19;20561;-62
2022/01/31 06:06:21;;;;;;;13.35;3.33;;;5.10;1.00;;;;;;7366817;19;20029;-63
2022/01/31 06:08:53;;;;;;;12.35;3.53;;;5.10;1.00;;;;;;7363289;19;20374;-63
2022/01/31 06:11:25;;;;;;;11.82;3.50;;;5.10;1.00;;;;;;7367486;19;20651;-63
2022/01/31 06:13:55;;;;;;;13.88;3.58;;;5.20;1.00;;;;;;7368100;19;20074;-62
2022/01/31 06:16:25;;;;;;;7.45;3.00;;;5.10;1.00;;;;;;7385909;19;20026;-63
2022/01/31 06:18:55;;;;;;;8.02;3.67;;;5.10;1.00;;;;;;7356894;19;20109;-64
2022/01/31 06:21:25;;;;;;;12.48;3.92;;;5.00;1.00;;;;;;7367870;19;20007;-63
2022/01/31 06:23:57;;;;;;;11.45;3.65;;;5.00;1.50;;;;;;7366696;19;20005;-63
2022/01/31 06:26:29;;;;;;;8.57;3.38;;;4.90;1.50;;;;;;7364277;19;20021;-63
2022/01/31 06:29:01;;;;;;;8.85;3.88;;;4.80;2.10;;;;;;7361809;19;20503;-63
2022/01/31 06:31:30;;;;;;;9.45;3.75;;;4.90;2.50;;;;;;7390106;19;20035;-63
2022/01/31 06:34:01;;;;;;;16.50;3.70;;;4.80;2.60;;;;;;7364600;19;20462;-66
2022/01/31 06:36:31;;;;;;;11.40;4.15;;;4.80;3.60;;;;;;7363573;19;20010;-64
2022/01/31 06:39:04;;;;;;;9.20;3.15;;;4.80;4.50;;;;;;7361727;19;20031;-64
2022/01/31 06:41:34;;;;;;;7.82;3.00;;;4.70;6.60;;;;;;7365560;19;20006;-63
2022/01/31 06:44:04;;;;;;;5.97;2.85;;;4.70;7.80;;;;;;7366311;19;20082;-62
2022/01/31 06:46:34;;;;;;;8.32;3.35;;;4.60;9.10;;;;;;7387057;19;20027;-62
2022/01/31 06:49:04;;;;;;;7.85;3.22;;;4.60;10.80;;;;;;7361417;19;20055;-62
2022/01/31 06:51:34;;;;;;;9.32;3.33;;;4.60;11.30;;;;;;7367082;19;20015;-63
2022/01/31 06:54:07;;;;;;;11.63;3.33;;;4.40;12.60;;;;;;7366159;19;20077;-63
2022/01/31 06:56:40;;;;;;;10.32;3.17;;;4.40;14.80;;;;;;7360310;19;20010;-63
2022/01/31 06:59:10;;;;;;;7.80;3.05;;;4.40;14.90;;;;;;7362934;19;20109;-63
2022/01/31 07:01:40;;;;;;;9.35;2.83;;;4.30;15.70;;;;;;7388771;19;20018;-63
2022/01/31 07:04:11;;;;;;;6.05;3.20;;;4.30;15.60;;;;;;7364753;19;20354;-63
2022/01/31 07:06:40;;;;;;;6.60;3.05;;;4.40;15.50;;;;;;7360866;19;20395;-63
2022/01/31 07:09:13;;;;;;;11.82;3.80;;;4.30;16.20;;;;;;7364182;19;21207;-61
2022/01/31 07:11:43;;;;;;;7.03;2.90;;;4.30;17.30;;;;;;7365095;19;20011;-63
2022/01/31 07:14:29;;;;;;;11.82;3.20;;;4.30;16.40;;;;;;7367350;19;20018;-63
2022/01/31 07:17:01;;;;;;;8.55;3.35;;;4.30;17.30;;;;;;7360644;19;20015;-63
2022/01/31 07:19:34;;;;;;;9.32;3.88;;;4.30;18.80;;;;;;7382011;19;20443;-63
2022/01/31 07:22:07;;;;;;;9.18;2.88;;;4.30;19.10;;;;;;7363679;19;20010;-63
2022/01/31 07:24:51;;;;;;;8.20;3.83;;;4.20;19.20;;;;;;7367157;19;20413;-63
2022/01/31 07:27:21;;;;;;;7.15;3.35;;;4.30;19.40;;;;;;7360656;19;20007;-63
2022/01/31 07:29:51;;;;;;;9.02;3.38;;;4.30;20.30;;;;;;7360442;19;20014;-64
2022/01/31 07:32:21;;;;;;;8.18;2.90;;;4.30;21.10;;;;;;7365747;19;20035;-64
2022/01/31 07:34:55;;;;;;;7.07;3.30;;;4.30;21.50;;;;;;7364745;19;20015;-63
2022/01/31 07:37:26;;;;;;;6.90;2.35;;;4.20;22.10;;;;;;7380071;19;20032;-64
2022/01/31 07:39:58;;;;;;;4.90;2.58;;;4.20;22.50;;;;;;7362017;19;20015;-63
2022/01/31 07:42:28;;;;;;;6.93;2.63;;;4.20;22.50;;;;;;7364070;19;20015;-63
2022/01/31 07:44:58;;;;;;;6.60;2.80;;;4.20;23.70;;;;;;7365450;19;20106;-63
2022/01/31 07:47:39;;;;;;;5.30;2.25;;;4.20;24.20;;;;;;7359338;19;20417;-63
2022/01/31 07:50:11;;;;;;;5.07;2.53;;;4.20;24.70;;;;;;7362153;19;20023;-63
2022/01/31 07:52:43;;;;;;;10.05;2.65;;;4.10;25.30;;;;;;7384251;19;20015;-63
2022/01/31 07:55:15;;;;;;;5.07;2.70;;;4.10;25.80;;;;;;7365976;19;20089;-63
2022/01/31 07:57:47;;;;;;;7.50;2.38;;;4.10;25.90;;;;;;7361316;19;20014;-63
2022/01/31 08:00:19;;;;;;;4.43;2.20;;;4.10;25.80;;;;;;7360512;19;20010;-63
2022/01/31 08:02:48;;;;;;;4.88;1.85;;;4.10;25.80;;;;;;7364904;19;20010;-63
2022/01/31 08:05:21;;;;;;;13.32;6.00;;;4.20;25.20;;;;;;7364455;19;20085;-63
2022/01/31 08:07:51;;;;;;;2.35;1.48;;;4.30;24.60;;;;;;7358674;19;20040;-64
2022/01/31 08:10:24;;;;;;;2.08;1.50;;;4.30;22.60;;;;;;7384474;19;20514;-63
2022/01/31 08:12:55;;;;;;;3.55;0.90;;;4.40;21.60;;;;;;7362896;19;20010;-63
2022/01/31 08:15:33;;;;;;;1.40;1.00;;;4.40;21.20;;;;;;7359816;19;20006;-63
2022/01/31 08:18:03;;;;;;;3.08;1.15;;;4.50;21.00;;;;;;7360450;19;20073;-62
2022/01/31 08:20:33;;;;;;;2.47;0.70;;;4.40;20.10;;;;;;7361137;19;20505;-62
2022/01/31 08:23:04;;;;;;;2.40;0.90;;;4.50;19.30;;;;;;7361549;19;20095;-63
2022/01/31 08:25:37;;;;;;;0.80;0.70;;;4.40;19.80;;;;;;7383838;19;20031;-63
2022/01/31 08:28:11;;;;;;;2.08;1.00;;;4.50;19.90;;;;;;7360832;19;20014;-63
2022/01/31 08:30:49;;;;;;;2.17;1.00;;;4.50;20.20;;;;;;7358479;19;20047;-62
2022/01/31 08:33:33;;;;;;;0.93;0.80;;;4.50;19.30;;;;;;7363860;19;20025;-63
2022/01/31 08:36:04;;;;;;;1.20;0.77;;;4.50;18.80;;;;;;7362770;19;20203;-63
2022/01/31 08:38:36;;;;;;;2.65;0.93;;;4.50;19.20;;;;;;7356422;19;20414;-63
2022/01/31 08:41:09;;;;;;;4.15;1.20;;;4.40;19.50;;;;;;7363134;19;20103;-61
2022/01/31 08:43:41;;;;;;;1.20;0.80;;;4.40;19.70;;;;;;7385052;19;20014;-63
2022/01/31 08:46:14;;;;;;;3.42;1.38;;;4.50;19.60;;;;;;7359054;19;20014;-63
2022/01/31 08:48:46;;;;;;;3.58;1.55;;;4.50;18.80;;;;;;7356018;19;20015;-63
2022/01/31 08:51:16;;;;;;;2.72;1.48;;;4.50;19.30;;;;;;7363439;19;20032;-63
2022/01/31 08:53:48;;;;;;;2.95;1.58;;;4.50;19.30;;;;;;7360043;19;20092;-63
2022/01/31 08:56:22;;;;;;;4.25;1.63;;;4.50;19.30;;;;;;7360517;19;20034;-63
2022/01/31 08:58:52;;;;;;;7.43;1.70;;;4.60;19.40;;;;;;7357608;19;20031;-62
2022/01/31 09:01:23;;;;;;;3.25;1.48;;;4.60;18.60;;;;;;7382629;19;20016;-62
2022/01/31 09:04:04;;;;;;;4.57;1.80;;;4.60;17.20;;;;;;7360437;19;20490;-64
2022/01/31 09:06:37;;;;;;;1.88;1.58;;;4.60;15.80;;;;;;7361090;19;20007;-63
2022/01/31 09:09:12;;;;;;;3.78;1.55;;;4.80;16.00;;;;;;7359072;19;20010;-63
2022/01/31 09:11:44;;;;;;;2.67;1.67;;;5.00;15.20;;;;;;7359780;19;20088;-64
2022/01/31 09:14:14;;;;;;;3.50;1.90;;;5.10;14.00;;;;;;7361629;19;20010;-64
2022/01/31 09:16:45;;;;;;;2.78;1.50;;;5.30;13.30;;;;;;7377223;19;20391;-64
2022/01/31 09:19:15;;;;;;;2.63;1.60;;;5.40;11.60;;;;;;7356478;19;20455;-63
2022/01/31 09:21:45;;;;;;;2.42;1.30;;;5.50;11.90;;;;;;7359863;19;20477;-62
2022/01/31 09:24:15;;;;;;;4.40;1.52;;;5.50;9.30;;;;;;7363298;19;20356;-63
2022/01/31 09:26:47;;;;;;;3.58;1.60;;;5.50;9.70;;;;;;7355668;19;21499;-63
2022/01/31 09:29:18;;;;;;;2.92;1.33;;;5.50;9.30;;;;;;7357805;19;20014;-62
2022/01/31 09:31:48;;;;;;;2.53;1.38;;;5.50;10.00;;;;;;7362829;19;20014;-63
2022/01/31 09:34:19;;;;;;;2.10;1.30;;;5.50;9.40;;;;;;7381340;19;20017;-62
2022/01/31 09:36:49;;;;;;;4.60;1.70;;;5.50;9.30;;;;;;7354527;19;20013;-62
2022/01/31 09:39:19;;;;;;;2.88;1.58;;;5.60;9.30;;;;;;7359250;19;20031;-62
2022/01/31 09:41:54;;;;;;;2.63;1.27;;;5.70;9.20;;;;;;7359734;19;20014;-62
2022/01/31 09:44:38;;;;;;;5.10;1.30;;;5.70;9.10;;;;;;7360818;19;20030;-63
2022/01/31 09:47:19;;;;;;;3.72;1.80;;;5.50;7.70;;;;;;7357839;19;20021;-63
2022/01/31 09:49:53;;;;;;;3.92;1.48;;;5.50;8.10;;;;;;7356626;19;20011;-63
2022/01/31 09:52:23;;;;;;;7.18;2.40;;;5.40;7.20;;;;;;7380770;19;20057;-62
2022/01/31 09:54:53;;;;;;;4.15;2.30;;;5.40;7.20;;;;;;7367478;19;20079;-63
2022/01/31 09:57:25;;;;;;;3.95;2.08;;;5.30;7.10;;;;;;7362725;19;20022;-62
2022/01/31 09:59:55;;;;;;;5.63;2.58;;;5.30;8.00;;;;;;7361822;19;20014;-63
2022/01/31 10:02:25;;;;;;;6.85;3.40;;;5.30;7.90;;;;;;7364090;19;20035;-63
2022/01/31 10:04:55;;;;;;;6.85;2.67;;;5.30;8.40;;;;;;7367792;19;20491;-64
2022/01/31 10:07:25;;;;;;;4.95;2.20;;;5.20;8.90;;;;;;7381725;19;20017;-63
2022/01/31 10:09:55;;;;;;;5.32;2.17;;;5.30;8.40;;;;;;7364370;19;21715;-62
2022/01/31 10:16:24;;;;;;;3.72;2.15;;;5.30;8.70;;;;;;7367155;19;20074;-63
2022/01/31 10:18:03;;;;;;;2.95;1.92;;;5.30;8.20;;;;;;7364053;19;20011;-64
2022/01/31 10:20:35;;;;;;;4.25;1.80;;;5.30;9.20;;;;;;7366254;19;20032;-63
2022/01/31 10:23:09;;;;;;;4.15;1.60;;;5.40;8.30;;;;;;7363282;19;20531;-63
2022/01/31 10:25:39;;;;;;;2.90;1.50;;;5.40;8.50;;;;;;7386804;19;20056;-63
2022/01/31 10:28:19;;;;;;;6.18;1.75;;;5.40;7.70;;;;;;7362371;19;20002;-63
2022/01/31 10:30:52;;;;;;;5.05;1.90;;;5.40;7.20;;;;;;7361428;19;20014;-63
2022/01/31 10:33:28;;;;;;;3.80;1.90;;;5.40;8.00;;;;;;7365921;19;20384;-63
2022/01/31 10:35:58;;;;;;;5.47;2.80;;;5.30;8.20;;;;;;7366415;19;20014;-63
2022/01/31 10:38:33;;;;;;;4.40;1.73;;;5.30;7.40;;;;;;7361615;19;20027;-64
2022/01/31 10:52:23;;;;;;;4.75;1.92;;;5.40;8.00;;;;;;7364450;19;20360;-63
2022/01/31 10:54:55;;;;;;;3.10;1.70;;;5.40;7.20;;;;;;7366009;19;20006;-64
2022/01/31 10:57:28;;;;;;;6.80;2.08;;;5.40;6.90;;;;;;7358329;19;20321;-63
2022/01/31 11:00:04;;;;;;;4.80;2.00;;;5.50;6.90;;;;;;7360332;19;20028;-64
2022/01/31 11:02:34;;;;;;;6.00;1.98;;;5.60;7.00;;;;;;7363449;19;20010;-63
2022/01/31 11:05:04;;;;;;;5.25;1.83;;;5.50;5.90;;;;;;7360327;19;20023;-63
2022/01/31 11:07:34;;;;;;;6.53;1.95;;;5.60;6.00;;;;;;7380144;19;20020;-63
2022/01/31 11:10:05;;;;;;;4.78;1.90;;;5.60;4.00;;;;;;7363452;19;20010;-63
2022/01/31 11:12:36;;;;;;;5.35;1.73;;;5.70;5.20;;;;;;7364455;19;20508;-65
2022/01/31 11:15:12;;;;;;;3.85;1.70;;;5.60;3.10;;;;;;7363833;19;20010;-63
2022/01/31 11:17:42;;;;;;;4.18;2.00;;;5.80;3.10;;;;;;7361567;19;20015;-63
2022/01/31 11:20:13;;;;;;;3.67;1.65;;;5.80;2.60;;;;;;7361807;19;20079;-62
2022/01/31 11:22:49;;;;;;;4.38;1.80;;;5.80;2.10;;;;;;7365157;19;20870;-64
2022/01/31 11:25:23;;;;;;;2.92;1.65;;;5.90;2.20;;;;;;7385230;19;20018;-63
2022/01/31 11:27:54;;;;;;;11.00;2.78;;;5.80;1.10;;;;;;7361131;19;20022;-63
2022/01/31 11:30:28;;;;;;;5.68;2.10;;;5.80;1.20;;;;;;7361490;19;20010;-63
2022/01/31 11:32:58;;;;;;;2.88;1.30;;;5.80;2.20;;;;;;7364549;19;20508;-63
2022/01/31 11:35:28;;;;;;;3.92;1.80;;;5.70;2.10;;;;;;7359526;19;20027;-62
2022/01/31 11:37:59;;;;;;;3.13;1.65;;;5.70;2.70;;;;;;7358680;19;20044;-62
2022/01/31 11:40:29;;;;;;;8.93;2.90;;;5.60;4.20;;;;;;7383855;19;20031;-62
2022/01/31 11:43:00;;;;;;;6.45;1.90;;;5.60;5.70;;;;;;7362039;19;20010;-63
2022/01/31 11:45:38;;;;;;;2.70;1.50;;;5.60;6.50;;;;;;7357926;19;20014;-63
2022/01/31 11:48:12;;;;;;;2.92;1.88;;;5.40;6.80;;;;;;7359307;19;20028;-63
2022/01/31 11:50:47;;;;;;;4.50;1.77;;;5.40;7.90;;;;;;7361697;19;20048;-64
2022/01/31 11:53:27;;;;;;;4.60;1.65;;;5.30;6.50;;;;;;7360923;19;20003;-63
2022/01/31 11:56:02;;;;;;;2.45;1.50;;;5.40;8.80;;;;;;7359794;19;20483;-62
2022/01/31 11:58:36;;;;;;;7.50;1.73;;;5.30;7.90;;;;;;7380402;19;20018;-62
2022/01/31 12:01:10;;;;;;;8.18;2.30;;;5.30;9.20;;;;;;7360221;19;20022;-63
2022/01/31 12:03:52;;;;;;;4.85;1.73;;;5.40;7.80;;;;;;7360552;19;20011;-63
2022/01/31 12:06:38;;;;;;;2.47;1.20;;;5.30;5.90;;;;;;7356479;19;20006;-63
2022/01/31 12:09:13;;;;;;;5.95;1.88;;;5.40;6.30;;;;;;7359065;19;20014;-63
2022/01/31 12:12:05;;;;;;;5.55;1.42;;;5.40;5.60;;;;;;7364308;19;20022;-63
2022/01/31 12:14:45;;;;;;;4.80;1.60;;;5.40;5.50;;;;;;7364837;19;20340;-63
2022/01/31 12:18:03;;;;;;;4.13;1.30;;;5.50;4.30;;;;;;7356809;19;20082;-64
2022/01/31 12:21:59;;;;;;;5.45;2.10;;;5.60;2.50;;;;;;7360800;19;20010;-65
2022/01/31 12:23:51;;;;;;;6.18;2.30;;;5.60;2.00;;;;;;7359283;19;20003;-63
2022/01/31 12:26:38;;;;;;;5.13;1.70;;;5.60;2.00;;;;;;7361343;19;20010;-64
2022/01/31 12:29:12;;;;;;;3.40;1.08;;;5.60;2.80;;;;;;7360904;19;20359;-64
2022/01/31 12:31:46;;;;;;;3.85;1.60;;;5.40;2.60;;;;;;7384895;19;20015;-63
2022/01/31 12:34:39;;;;;;;5.70;1.85;;;5.50;4.60;;;;;;7361996;19;20007;-63
2022/01/31 12:37:22;;;;;;;4.75;2.22;;;5.30;4.20;;;;;;7358975;19;20006;-63
2022/01/31 12:40:04;;;;;;;3.58;1.85;;;5.20;4.40;;;;;;7361553;19;20388;-63
2022/01/31 12:42:56;;;;;;;3.80;1.58;;;5.40;6.40;;;;;;7361832;19;20010;-63
2022/01/31 12:45:34;;;;;;;7.78;1.92;;;5.30;6.00;;;;;;7359286;19;20010;-62
2022/01/31 12:48:23;;;;;;;3.30;1.33;;;5.20;5.40;;;;;;7359734;19;20057;-64
2022/01/31 12:51:07;;;;;;;4.53;1.77;;;5.20;6.30;;;;;;7360146;19;20022;-62
2022/01/31 12:53:53;;;;;;;4.97;1.63;;;5.20;6.20;;;;;;7361057;19;20022;-63
2022/01/31 12:56:26;;;;;;;4.10;1.33;;;5.20;7.20;;;;;;7357319;19;20086;-63
2022/01/31 12:59:13;;;;;;;3.97;1.40;;;5.20;6.10;;;;;;7358579;19;20439;-63
2022/01/31 13:01:44;;;;;;;6.03;1.52;;;5.20;6.60;;;;;;7383374;19;20416;-64
2022/01/31 13:04:19;;;;;;;5.93;1.70;;;5.20;7.40;;;;;;7360007;19;20007;-63
2022/01/31 13:06:53;;;;;;;4.47;1.80;;;5.10;7.20;;;;;;7357899;19;20039;-63
2022/01/31 13:09:25;;;;;;;5.90;1.55;;;5.00;8.50;;;;;;7358689;19;20362;-63
2022/01/31 13:11:58;;;;;;;2.53;1.30;;;5.00;9.00;;;;;;7361428;19;20089;-63
2022/01/31 13:14:30;;;;;;;4.28;1.60;;;5.00;9.70;;;;;;7362122;19;20482;-64
2022/01/31 13:17:18;;;;;;;4.85;1.85;;;4.90;11.40;;;;;;7357177;19;20021;-63
2022/01/31 13:19:50;;;;;;;4.70;1.35;;;4.90;10.60;;;;;;7357780;19;20021;-64
2022/01/31 13:22:28;;;;;;;6.40;1.90;;;4.90;11.30;;;;;;7383174;19;20011;-64
2022/01/31 13:24:59;;;;;;;6.38;1.52;;;4.90;12.10;;;;;;7362325;19;20025;-64
2022/01/31 13:27:35;;;;;;;7.00;2.20;;;4.90;12.50;;;;;;7356386;19;20010;-62
2022/01/31 13:30:14;;;;;;;3.78;1.35;;;4.90;10.50;;;;;;7365444;19;20006;-64
2022/01/31 13:32:44;;;;;;;2.13;1.25;;;4.90;11.40;;;;;;7369754;19;20050;-64
2022/01/31 13:35:17;;;;;;;5.93;2.00;;;5.00;10.70;;;;;;7367286;19;20048;-63
2022/01/31 13:37:53;;;;;;;6.70;1.55;;;5.00;9.90;;;;;;7366380;19;20100;-63
2022/01/31 13:40:32;;;;;;;5.05;1.67;;;5.10;9.30;;;;;;7386197;19;20429;-64
2022/01/31 13:43:13;;;;;;;4.53;1.58;;;5.20;9.20;;;;;;7368841;19;20151;-63